Meldrum Bay, Ontario

7:49 PM EDT on September 02, 2015 (GMT -0400)
| | Change Station
CLOSE
Current Station
Personal Weather Station
Location: ,
Elevation: -9999 ft
Nearby Weather Stations

Elev -9999 ft 0.00 °N, 0.00 °E | Updated

Thunderstorm
Thunderstorm
67 °F
Feels Like 67 °F
N
3
Wind Variable Wind from West
Gusts mph

Today
High -- | Low -- °F
--% Chance of Precip.
Yesterday
High -- | Low -- °F
Precip. -- in
6:54 AM 8:09 PM
Waning Gibbous, 76% visible
Pressure 29.93 in
Visibility 9.0 miles
Clouds Clear
Dew Point 63 °F
Humidity 87%
Rainfall -9999.00 in
Snow Depth Not available.
UV 1 out of 12
Pollen Not available.
Air Quality Not available.
Flu Activity Not available.
METAR CYZE 022300Z AUTO 26004KT 9SM CLR 24/21 A2993 RMK SLP134 DENSITY ALT 1800FT
Pressure 29.93 in
Visibility 9.0 miles
Clouds Clear
Dew Point 63 °F
Humidity 87%
Rainfall -9999.00 in
Snow Depth Not available.
UV 1 out of 12
Pollen Not available.
Air Quality Not available.
Flu Activity Not available.
METAR CYZE 022300Z AUTO 26004KT 9SM CLR 24/21 A2993 RMK SLP134 DENSITY ALT 1800FT

10-Day Weather Forecast

×

Almanac

Astronomy

Sep. 02, 2015 Rise Set
Actual Time
Civil Twilight
Nautical Twilight
Astronomical Twilight
Moon
Length of Visible Light
Length of Day
Tomorrow will be .
, % of the Moon is Illuminated

Today's Extremes

Country Highs Country Lows

Community

WunderPhotos

Upload Photos

1,851,841 photos uploaded!

WunderBlogs® & News

Nearby

Air Quality

  Air Quality AQ Index Pollutant
Not available.

Snow Depth

Station Depth Elevation

Earthquake Activity

City Distance Mag. Time & Date
Minimum magnitude displayed is 2.5.

Coastal Water Temperatures

Place Temperature

Stations

Nearby Weather Stations

Station Location Temp. Windchill Dew Point Humidity Wind Precip. Elev Updated Type